Time;durP1;ratioP1;P1;durP2;ratioP2;P2;SDS_P1;SDS_P2;PMS_P1;PMS_P2;Temp;Humidity;BMP_temperature;BMP_pressure;BME280_temperature;BME280_humidity;BME280_pressure;Samples;Min_cycle;Max_cycle;Signal;HPM_P1;HPM_P2
2023/05/15 00:01:39;;;;;;;;;;;;;;;15.50;100.00;97390.34;5081514;28;19952;-72
2023/05/15 00:04:05;;;;;;;;;;;;;;;15.46;100.00;97389.31;5082105;28;19924;-73
2023/05/15 00:06:32;;;;;;;;;;;;;;;15.46;100.00;97391.22;5076602;28;20519;-73
2023/05/15 00:08:58;;;;;;;;;;;;;;;15.44;100.00;97398.81;5073677;28;19947;-73
2023/05/15 00:11:26;;;;;;;;;;;;;;;15.46;100.00;97386.63;5072550;28;19996;-73
2023/05/15 00:13:54;;;;;;;;;;;;;;;15.23;100.00;97389.63;5084839;28;19924;-73
2023/05/15 00:16:21;;;;;;;;;;;;;;;15.22;100.00;97383.47;5075373;28;20413;-73
2023/05/15 00:18:47;;;;;;;;;;;;;;;15.39;100.00;97380.88;5077564;28;19992;-73
2023/05/15 00:21:13;;;;;;;;;;;;;;;15.34;100.00;97388.28;5068926;28;19952;-73
2023/05/15 00:23:40;;;;;;;;;;;;;;;15.10;100.00;97393.97;5073863;28;20011;-74
2023/05/15 00:26:06;;;;;;;;;;;;;;;15.10;100.00;97383.97;5076426;28;20000;-73
2023/05/15 00:28:32;;;;;;;;;;;;;;;14.94;100.00;97390.84;5076364;28;19931;-73
2023/05/15 00:31:00;;;;;;;;;;;;;;;15.14;100.00;97394.94;5067613;28;19947;-73
2023/05/15 00:33:26;;;;;;;;;;;;;;;15.22;100.00;97390.72;5069835;28;20015;-73
2023/05/15 00:35:53;;;;;;;;;;;;;;;14.86;100.00;97394.22;5084112;28;19924;-73
2023/05/15 00:38:19;;;;;;;;;;;;;;;14.85;100.00;97389.97;5074070;28;19935;-73
2023/05/15 00:40:46;;;;;;;;;;;;;;;14.59;100.00;97394.28;5071360;28;19921;-73
2023/05/15 00:43:12;;;;;;;;;;;;;;;14.36;100.00;97384.56;5089244;28;20321;-73
2023/05/15 00:45:40;;;;;;;;;;;;;;;14.25;100.00;97388.50;5075545;28;19925;-73
2023/05/15 00:48:09;;;;;;;;;;;;;;;14.28;100.00;97390.59;5073909;28;19931;-73
2023/05/15 00:50:36;;;;;;;;;;;;;;;14.29;100.00;97386.81;5090718;28;20559;-73
2023/05/15 00:53:03;;;;;;;;;;;;;;;14.66;100.00;97381.25;5072820;28;19960;-72
2023/05/15 00:55:30;;;;;;;;;;;;;;;14.80;100.00;97394.63;5078471;28;19925;-72
2023/05/15 00:57:57;;;;;;;;;;;;;;;14.83;100.00;97378.69;5075001;28;19996;-72
2023/05/15 01:00:24;;;;;;;;;;;;;;;14.59;100.00;97381.66;5076662;28;19988;-72
2023/05/15 01:02:51;;;;;;;;;;;;;;;14.53;100.00;97385.53;5083335;28;19928;-72
2023/05/15 01:05:18;;;;;;;;;;;;;;;14.50;100.00;97385.34;5071314;28;19924;-73
2023/05/15 01:07:48;;;;;;;;;;;;;;;14.22;100.00;97378.34;5075104;28;19974;-73
2023/05/15 01:10:15;;;;;;;;;;;;;;;14.22;100.00;97383.72;5082024;28;19929;-73
2023/05/15 01:12:44;;;;;;;;;;;;;;;14.52;100.00;97383.13;5070684;28;19988;-73
2023/05/15 01:15:10;;;;;;;;;;;;;;;14.64;100.00;97375.34;5074833;28;19956;-73
2023/05/15 01:17:37;;;;;;;;;;;;;;;14.30;100.00;97378.44;5076096;28;19952;-73
2023/05/15 01:20:05;;;;;;;;;;;;;;;14.63;100.00;97378.34;5079493;28;19979;-73
2023/05/15 01:22:41;;;;;;;;;;;;;;;14.61;100.00;97380.56;5072096;28;19936;-72
2023/05/15 01:25:26;;;;;;;;;;;;;;;14.91;100.00;97380.69;5074460;28;19959;-72
2023/05/15 01:27:54;;;;;;;;;;;;;;;14.99;100.00;97377.25;5082973;28;20028;-72
2023/05/15 01:30:23;;;;;;;;;;;;;;;15.13;100.00;97377.22;5104065;28;19994;-73
2023/05/15 01:32:54;;;;;;;;;;;;;;;14.93;100.00;97375.00;5071805;28;19924;-73
2023/05/15 01:35:21;;;;;;;;;;;;;;;14.94;100.00;97372.00;5078990;28;19943;-73
2023/05/15 01:37:49;;;;;;;;;;;;;;;14.94;100.00;97369.31;5075357;28;19959;-73
2023/05/15 01:40:17;;;;;;;;;;;;;;;15.02;100.00;97368.59;5068707;28;19963;-73
2023/05/15 01:42:46;;;;;;;;;;;;;;;14.84;100.00;97374.13;5086193;28;20086;-73
2023/05/15 01:45:14;;;;;;;;;;;;;;;14.85;100.00;97370.34;5076991;28;19971;-73
2023/05/15 01:47:43;;;;;;;;;;;;;;;14.93;100.00;97378.47;5079673;28;19921;-73
2023/05/15 01:50:11;;;;;;;;;;;;;;;14.89;100.00;97368.63;5077586;28;19968;-71
2023/05/15 01:52:39;;;;;;;;;;;;;;;14.71;100.00;97370.38;5071897;28;19932;-72
2023/05/15 01:55:07;;;;;;;;;;;;;;;14.58;100.00;97365.81;5076307;28;19925;-72
2023/05/15 01:57:34;;;;;;;;;;;;;;;14.55;100.00;97366.41;5081845;28;19959;-72
2023/05/15 02:00:00;;;;;;;;;;;;;;;14.82;100.00;97371.75;5078348;28;20394;-72
2023/05/15 02:02:29;;;;;;;;;;;;;;;14.88;100.00;97367.03;5073741;28;19988;-73
2023/05/15 02:04:56;;;;;;;;;;;;;;;14.68;100.00;97359.41;5074723;28;19978;-73
2023/05/15 02:07:23;;;;;;;;;;;;;;;14.67;100.00;97368.59;5076582;28;19966;-73
2023/05/15 02:09:49;;;;;;;;;;;;;;;14.70;100.00;97371.44;5079144;28;19932;-73
2023/05/15 02:12:16;;;;;;;;;;;;;;;14.85;100.00;97371.16;5079049;28;19959;-73
2023/05/15 02:14:43;;;;;;;;;;;;;;;15.02;100.00;97379.34;5079213;28;19963;-73
2023/05/15 02:17:10;;;;;;;;;;;;;;;15.03;100.00;97372.06;5077205;28;19944;-73
2023/05/15 02:19:37;;;;;;;;;;;;;;;14.93;100.00;97362.34;5081124;28;19931;-73
2023/05/15 02:22:04;;;;;;;;;;;;;;;15.02;100.00;97359.72;5078773;28;19932;-73
2023/05/15 02:24:31;;;;;;;;;;;;;;;15.05;100.00;97369.88;5090716;28;19929;-73
2023/05/15 02:27:00;;;;;;;;;;;;;;;15.10;100.00;97365.16;5074295;28;20379;-73
2023/05/15 02:29:30;;;;;;;;;;;;;;;15.03;100.00;97369.38;5078705;28;19931;-73
2023/05/15 02:32:03;;;;;;;;;;;;;;;15.05;100.00;97367.19;5072573;28;19925;-73
2023/05/15 02:34:34;;;;;;;;;;;;;;;15.02;100.00;97363.22;5077909;28;19936;-72
2023/05/15 02:37:03;;;;;;;;;;;;;;;15.08;100.00;97364.69;5069734;28;20339;-72
2023/05/15 02:39:30;;;;;;;;;;;;;;;15.06;100.00;97374.94;5079126;28;19926;-72
2023/05/15 02:41:56;;;;;;;;;;;;;;;15.14;100.00;97363.47;5078005;28;19982;-72
2023/05/15 02:44:23;;;;;;;;;;;;;;;15.22;100.00;97363.84;5078184;28;19925;-72
2023/05/15 02:46:50;;;;;;;;;;;;;;;15.26;100.00;97348.66;5075581;28;19925;-72
2023/05/15 02:49:16;;;;;;;;;;;;;;;15.30;100.00;97355.81;5070225;28;19935;-73
2023/05/15 02:51:45;;;;;;;;;;;;;;;15.31;100.00;97351.25;5072904;28;20301;-73
2023/05/15 02:54:13;;;;;;;;;;;;;;;15.34;100.00;97350.63;5081095;28;19971;-73
2023/05/15 02:56:39;;;;;;;;;;;;;;;15.23;100.00;97355.44;5081157;28;19960;-73
2023/05/15 02:59:05;;;;;;;;;;;;;;;15.28;100.00;97355.34;5074620;28;19925;-73
2023/05/15 03:01:32;;;;;;;;;;;;;;;15.33;100.00;97349.03;5074282;28;19949;-73
2023/05/15 03:03:58;;;;;;;;;;;;;;;15.35;100.00;97350.31;5077822;28;19971;-73
2023/05/15 03:06:25;;;;;;;;;;;;;;;15.35;100.00;97355.69;5081064;28;20564;-73
2023/05/15 03:08:51;;;;;;;;;;;;;;;15.33;100.00;97347.13;5077683;28;19947;-72
2023/05/15 03:11:20;;;;;;;;;;;;;;;15.37;100.00;97350.81;5077291;28;20237;-72
2023/05/15 03:13:46;;;;;;;;;;;;;;;15.37;100.00;97350.00;5073792;28;19929;-72
2023/05/15 03:16:12;;;;;;;;;;;;;;;15.38;100.00;97354.28;5077737;28;20008;-73
2023/05/15 03:18:39;;;;;;;;;;;;;;;15.41;100.00;97351.00;5079170;28;19964;-73
2023/05/15 03:21:05;;;;;;;;;;;;;;;15.35;100.00;97349.53;5077607;28;19967;-73
2023/05/15 03:23:32;;;;;;;;;;;;;;;15.35;100.00;97338.78;5077964;28;19936;-73
2023/05/15 03:25:58;;;;;;;;;;;;;;;15.36;100.00;97341.13;5077997;28;19984;-73
2023/05/15 03:28:26;;;;;;;;;;;;;;;15.37;100.00;97341.94;5075834;28;19932;-73
2023/05/15 03:30:52;;;;;;;;;;;;;;;15.33;100.00;97343.63;5070809;28;19932;-73
2023/05/15 03:33:19;;;;;;;;;;;;;;;15.37;100.00;97341.94;5072459;28;19971;-73
2023/05/15 03:35:45;;;;;;;;;;;;;;;15.37;100.00;97331.97;5076895;28;19921;-73
2023/05/15 03:38:12;;;;;;;;;;;;;;;15.40;100.00;97333.25;5083188;28;20376;-73
2023/05/15 03:40:38;;;;;;;;;;;;;;;15.38;100.00;97335.47;5073526;28;20106;-73
2023/05/15 03:43:05;;;;;;;;;;;;;;;15.36;100.00;97334.97;5075919;28;19988;-73
2023/05/15 03:45:33;;;;;;;;;;;;;;;15.35;100.00;97336.84;5076543;28;19935;-73
2023/05/15 03:47:59;;;;;;;;;;;;;;;15.35;100.00;97333.38;5076479;28;19935;-73
2023/05/15 03:50:25;;;;;;;;;;;;;;;15.30;100.00;97339.69;5076163;28;20539;-73
2023/05/15 03:52:52;;;;;;;;;;;;;;;15.34;100.00;97340.66;5072917;28;19963;-73
2023/05/15 03:55:18;;;;;;;;;;;;;;;15.35;100.00;97344.16;5073599;28;19931;-72
2023/05/15 03:57:45;;;;;;;;;;;;;;;15.28;100.00;97331.13;5078590;28;19925;-72
2023/05/15 04:00:12;;;;;;;;;;;;;;;15.31;100.00;97340.47;5082340;28;20400;-72
2023/05/15 04:02:40;;;;;;;;;;;;;;;15.28;100.00;97341.88;5073481;28;19984;-72
2023/05/15 04:05:07;;;;;;;;;;;;;;;15.30;100.00;97333.50;5076301;28;19970;-72
2023/05/15 04:07:34;;;;;;;;;;;;;;;15.31;100.00;97332.41;5076535;28;19963;-72
2023/05/15 04:10:00;;;;;;;;;;;;;;;15.27;100.00;97337.59;5073376;28;20264;-72
2023/05/15 04:12:28;;;;;;;;;;;;;;;15.27;100.00;97332.22;5072306;28;19929;-72
2023/05/15 04:14:55;;;;;;;;;;;;;;;15.28;100.00;97336.50;5077591;28;19921;-72
2023/05/15 04:17:21;;;;;;;;;;;;;;;15.25;100.00;97330.94;5076564;28;19925;-72
2023/05/15 04:19:49;;;;;;;;;;;;;;;15.26;100.00;97336.00;5078277;28;19956;-72
2023/05/15 04:22:15;;;;;;;;;;;;;;;15.27;100.00;97331.41;5076900;28;19925;-73
2023/05/15 04:24:42;;;;;;;;;;;;;;;15.24;100.00;97330.16;5078291;28;19924;-72
2023/05/15 04:27:08;;;;;;;;;;;;;;;15.29;100.00;97331.94;5076729;28;19971;-72
2023/05/15 04:29:34;;;;;;;;;;;;;;;15.28;100.00;97335.72;5078142;28;19952;-73
2023/05/15 04:32:01;;;;;;;;;;;;;;;15.27;100.00;97339.50;5071732;28;19920;-73
2023/05/15 04:34:28;;;;;;;;;;;;;;;15.28;100.00;97339.19;5075528;28;19933;-72
2023/05/15 04:36:56;;;;;;;;;;;;;;;15.29;100.00;97342.69;5075770;28;19925;-72
2023/05/15 04:39:22;;;;;;;;;;;;;;;15.26;100.00;97332.50;5079181;28;19996;-72
2023/05/15 04:41:48;;;;;;;;;;;;;;;15.27;100.00;97339.50;5075776;28;19924;-73
2023/05/15 04:44:15;;;;;;;;;;;;;;;15.24;100.00;97340.91;5074626;28;20571;-73
2023/05/15 04:46:41;;;;;;;;;;;;;;;15.17;100.00;97337.03;5077367;28;19925;-73
2023/05/15 04:49:07;;;;;;;;;;;;;;;15.21;100.00;97340.72;5075805;28;19928;-73
2023/05/15 04:51:34;;;;;;;;;;;;;;;15.16;100.00;97332.78;5075472;28;19925;-73
2023/05/15 04:54:02;;;;;;;;;;;;;;;15.19;100.00;97342.94;5071185;28;19928;-73
2023/05/15 04:56:28;;;;;;;;;;;;;;;15.23;100.00;97338.50;5071218;28;19921;-73
2023/05/15 04:58:55;;;;;;;;;;;;;;;15.21;100.00;97340.72;5083353;28;19924;-73
2023/05/15 05:01:21;;;;;;;;;;;;;;;15.20;100.00;97342.59;5074032;28;19924;-73
2023/05/15 05:03:47;;;;;;;;;;;;;;;15.22;100.00;97345.81;5070746;28;19929;-72
2023/05/15 05:06:14;;;;;;;;;;;;;;;15.17;100.00;97334.34;5073129;28;19924;-73
2023/05/15 05:08:40;;;;;;;;;;;;;;;15.17;100.00;97339.72;5075162;28;19988;-73
2023/05/15 05:11:08;;;;;;;;;;;;;;;15.17;100.00;97342.41;5080914;28;19925;-72
2023/05/15 05:13:34;;;;;;;;;;;;;;;15.18;100.00;97336.75;5074054;28;19924;-72
2023/05/15 05:16:01;;;;;;;;;;;;;;;15.20;100.00;97339.91;5071921;28;19978;-72
2023/05/15 05:18:27;;;;;;;;;;;;;;;15.24;100.00;97345.47;5070710;28;19925;-72
2023/05/15 05:20:58;;;;;;;;;;;;;;;15.23;100.00;97341.19;5083435;28;19935;-72
2023/05/15 05:23:25;;;;;;;;;;;;;;;15.24;100.00;97345.47;5074384;28;19952;-72
2023/05/15 05:25:51;;;;;;;;;;;;;;;15.24;100.00;97340.09;5070597;28;19940;-73
2023/05/15 05:28:19;;;;;;;;;;;;;;;15.26;100.00;97343.28;5075252;28;19944;-73
2023/05/15 05:30:45;;;;;;;;;;;;;;;15.24;100.00;97356.25;5075207;28;19984;-73
2023/05/15 05:33:12;;;;;;;;;;;;;;;15.28;100.00;97346.47;5075306;28;19925;-73
2023/05/15 05:35:39;;;;;;;;;;;;;;;15.22;100.00;97353.88;5075146;28;19925;-73
2023/05/15 05:38:05;;;;;;;;;;;;;;;15.18;100.00;97363.66;5072766;28;19924;-73
2023/05/15 05:40:31;;;;;;;;;;;;;;;15.20;100.00;97361.44;5070168;28;20013;-73
2023/05/15 05:42:58;;;;;;;;;;;;;;;15.21;100.00;97362.22;5083459;28;19995;-72
2023/05/15 05:45:26;;;;;;;;;;;;;;;15.20;100.00;97366.81;5075545;28;19955;-72
2023/05/15 05:47:52;;;;;;;;;;;;;;;15.21;100.00;97346.09;5073987;28;19988;-73
2023/05/15 05:50:19;;;;;;;;;;;;;;;15.28;100.00;97349.16;5075014;28;19931;-72
2023/05/15 05:52:45;;;;;;;;;;;;;;;15.29;100.00;97350.75;5074324;28;19925;-72
2023/05/15 05:55:12;;;;;;;;;;;;;;;15.25;100.00;97364.03;5071051;28;19932;-72
2023/05/15 05:57:38;;;;;;;;;;;;;;;15.22;100.00;97361.94;5076021;28;19975;-72
2023/05/15 06:00:08;;;;;;;;;;;;;;;15.21;100.00;97362.22;5094637;28;19997;-72
2023/05/15 06:02:36;;;;;;;;;;;;;;;15.15;100.00;97358.88;5071226;28;20013;-72
2023/05/15 06:05:04;;;;;;;;;;;;;;;15.19;100.00;97353.69;5079492;28;19932;-72
2023/05/15 06:07:31;;;;;;;;;;;;;;;15.20;100.00;97369.50;5069940;28;19984;-73
2023/05/15 06:09:57;;;;;;;;;;;;;;;15.24;100.00;97367.00;5074856;28;19925;-73
2023/05/15 06:12:24;;;;;;;;;;;;;;;15.23;100.00;97355.44;5073778;28;19956;-73
2023/05/15 06:14:50;;;;;;;;;;;;;;;15.30;100.00;97355.03;5071430;28;19925;-73
2023/05/15 06:17:17;;;;;;;;;;;;;;;15.20;100.00;97356.06;5072855;28;19933;-73
2023/05/15 06:19:45;;;;;;;;;;;;;;;15.10;100.00;97361.69;5071140;28;19960;-73
2023/05/15 06:22:11;;;;;;;;;;;;;;;15.16;100.00;97359.69;5072540;28;19939;-73
2023/05/15 06:24:37;;;;;;;;;;;;;;;15.27;100.00;97359.13;5074678;28;20263;-74
2023/05/15 06:27:04;;;;;;;;;;;;;;;15.31;100.00;97352.03;5070870;28;19924;-73
2023/05/15 06:29:30;;;;;;;;;;;;;;;15.33;100.00;97355.19;5072077;28;19955;-73
2023/05/15 06:31:57;;;;;;;;;;;;;;;15.33;100.00;97349.81;5077476;28;19935;-73
2023/05/15 06:34:23;;;;;;;;;;;;;;;15.47;100.00;97355.94;5081529;28;19920;-73
2023/05/15 06:36:51;;;;;;;;;;;;;;;15.48;100.00;97354.06;5078202;28;19958;-73
2023/05/15 06:39:17;;;;;;;;;;;;;;;15.29;100.00;97356.91;5076531;28;19946;-73
2023/05/15 06:41:44;;;;;;;;;;;;;;;15.35;100.00;97349.53;5074407;28;19960;-73
2023/05/15 06:44:10;;;;;;;;;;;;;;;15.24;100.00;97351.66;5076883;28;19925;-73
2023/05/15 06:46:37;;;;;;;;;;;;;;;15.44;100.00;97355.75;5086349;28;19991;-73
2023/05/15 06:49:03;;;;;;;;;;;;;;;15.22;100.00;97361.16;5074453;28;20023;-73
2023/05/15 06:51:29;;;;;;;;;;;;;;;15.41;100.00;97365.22;5074785;28;19921;-73
2023/05/15 06:53:57;;;;;;;;;;;;;;;15.53;100.00;97359.31;5076045;28;19985;-73
2023/05/15 06:56:24;;;;;;;;;;;;;;;15.47;100.00;97360.53;5082067;28;19928;-73
2023/05/15 06:58:50;;;;;;;;;;;;;;;15.44;100.00;97361.13;5075049;28;20435;-73
2023/05/15 07:01:17;;;;;;;;;;;;;;;15.33;100.00;97360.59;5074550;28;19984;-73
2023/05/15 07:03:43;;;;;;;;;;;;;;;15.43;100.00;97360.34;5078012;28;19983;-73
2023/05/15 07:06:09;;;;;;;;;;;;;;;15.31;100.00;97360.09;5083146;28;19963;-73
2023/05/15 07:08:36;;;;;;;;;;;;;;;15.32;100.00;97360.91;5074504;28;19921;-73
2023/05/15 07:11:04;;;;;;;;;;;;;;;15.36;100.00;97364.56;5077286;28;19936;-73
2023/05/15 07:13:30;;;;;;;;;;;;;;;15.48;100.00;97362.94;5077618;28;20001;-73
2023/05/15 07:15:57;;;;;;;;;;;;;;;15.36;100.00;97361.84;5077785;28;19924;-73
2023/05/15 07:18:23;;;;;;;;;;;;;;;15.47;100.00;97363.22;5077188;28;19927;-73
2023/05/15 07:20:49;;;;;;;;;;;;;;;15.55;100.00;97365.19;5080455;28;20469;-72
2023/05/15 07:23:16;;;;;;;;;;;;;;;15.55;100.00;97357.09;5074541;28;19931;-73
2023/05/15 07:25:42;;;;;;;;;;;;;;;15.58;100.00;97359.97;5077501;28;20000;-73
2023/05/15 07:28:10;;;;;;;;;;;;;;;15.52;100.00;97368.50;5087920;28;19992;-74
2023/05/15 07:30:36;;;;;;;;;;;;;;;15.49;100.00;97364.53;5095523;28;19988;-72
2023/05/15 07:33:03;;;;;;;;;;;;;;;15.59;100.00;97355.41;5076677;28;20221;-72
2023/05/15 07:35:30;;;;;;;;;;;;;;;15.71;100.00;97358.31;5076814;28;19939;-72
2023/05/15 07:37:56;;;;;;;;;;;;;;;15.54;100.00;97358.19;5076474;28;19921;-73
2023/05/15 07:40:22;;;;;;;;;;;;;;;15.55;100.00;97360.59;5074839;28;20010;-73
2023/05/15 07:42:49;;;;;;;;;;;;;;;15.56;100.00;97356.81;5073209;28;19971;-74
2023/05/15 07:45:17;;;;;;;;;;;;;;;15.56;100.00;97353.31;5074584;28;19956;-74
2023/05/15 07:47:45;;;;;;;;;;;;;;;15.58;100.00;97349.22;5077139;28;19925;-74
2023/05/15 07:50:11;;;;;;;;;;;;;;;15.52;100.00;97346.97;5082007;28;19924;-73
2023/05/15 07:52:37;;;;;;;;;;;;;;;15.45;100.00;97346.56;5072167;28;19936;-73
2023/05/15 07:55:04;;;;;;;;;;;;;;;15.44;100.00;97342.31;5077213;28;19966;-73
2023/05/15 07:57:31;;;;;;;;;;;;;;;15.71;100.00;97350.25;5076329;28;19966;-72
2023/05/15 07:59:58;;;;;;;;;;;;;;;15.74;100.00;97352.31;5072907;28;19932;-72
2023/05/15 08:02:25;;;;;;;;;;;;;;;15.88;100.00;97350.31;5075193;28;19929;-74
2023/05/15 08:04:52;;;;;;;;;;;;;;;15.94;100.00;97350.97;5072624;28;19984;-74
2023/05/15 08:07:18;;;;;;;;;;;;;;;16.12;100.00;97355.34;5075164;28;19924;-74
2023/05/15 08:09:45;;;;;;;;;;;;;;;16.16;100.00;97342.81;5076459;28;19925;-73
2023/05/15 08:12:16;;;;;;;;;;;;;;;16.10;100.00;97347.53;5081496;28;19921;-73
2023/05/15 08:14:42;;;;;;;;;;;;;;;16.36;100.00;97352.22;5071322;28;19980;-73
2023/05/15 08:17:09;;;;;;;;;;;;;;;16.22;100.00;97343.47;5075175;28;19925;-73
2023/05/15 08:19:37;;;;;;;;;;;;;;;16.47;100.00;97356.19;5075930;28;19932;-74
2023/05/15 08:22:06;;;;;;;;;;;;;;;16.52;100.00;97347.97;5081738;28;20000;-74
2023/05/15 08:24:33;;;;;;;;;;;;;;;16.29;100.00;97351.88;5075843;28;19968;-74
2023/05/15 08:26:59;;;;;;;;;;;;;;;16.62;100.00;97351.19;5072440;28;19978;-74
2023/05/15 08:29:26;;;;;;;;;;;;;;;16.84;100.00;97349.47;5079137;28;19924;-74
2023/05/15 08:31:53;;;;;;;;;;;;;;;16.92;100.00;97346.78;5069663;28;19936;-75
2023/05/15 08:34:19;;;;;;;;;;;;;;;16.75;100.00;97346.75;5077305;28;19932;-74
2023/05/15 08:36:47;;;;;;;;;;;;;;;16.82;100.00;97340.91;5068357;28;19920;-74
2023/05/15 08:39:13;;;;;;;;;;;;;;;17.07;100.00;97351.69;5073980;28;19925;-74
2023/05/15 08:41:42;;;;;;;;;;;;;;;17.10;100.00;97347.56;5075433;28;19925;-74
2023/05/15 08:44:09;;;;;;;;;;;;;;;17.08;100.00;97353.28;5075528;28;19992;-73
2023/05/15 08:46:36;;;;;;;;;;;;;;;17.08;100.00;97347.09;5075477;28;19924;-73
2023/05/15 08:49:08;;;;;;;;;;;;;;;16.97;100.00;97349.31;5072302;28;19992;-73
2023/05/15 08:51:34;;;;;;;;;;;;;;;17.08;100.00;97341.72;5069952;28;19925;-74
2023/05/15 08:54:02;;;;;;;;;;;;;;;16.99;100.00;97333.59;5079227;28;19935;-74
2023/05/15 08:56:28;;;;;;;;;;;;;;;17.00;100.00;97332.50;5072086;28;19975;-74
2023/05/15 08:58:55;;;;;;;;;;;;;;;17.21;100.00;97328.03;5080373;28;19931;-74
2023/05/15 09:01:22;;;;;;;;;;;;;;;17.13;100.00;97326.16;5090098;28;20064;-74
2023/05/15 09:03:48;;;;;;;;;;;;;;;17.21;100.00;97328.03;5071130;28;19993;-74
2023/05/15 09:06:15;;;;;;;;;;;;;;;17.37;100.00;97332.94;5073347;28;19921;-74
2023/05/15 09:08:42;;;;;;;;;;;;;;;17.31;100.00;97324.22;5076126;28;19960;-74
2023/05/15 09:11:11;;;;;;;;;;;;;;;17.30;100.00;97327.25;5075504;28;19940;-74
2023/05/15 09:13:38;;;;;;;;;;;;;;;17.40;100.00;97319.59;5075786;28;19940;-74
2023/05/15 09:16:05;;;;;;;;;;;;;;;17.26;100.00;97319.78;5075878;28;19996;-73
2023/05/15 09:18:32;;;;;;;;;;;;;;;17.26;100.00;97319.78;5076410;28;19964;-73
2023/05/15 09:21:21;;;;;;;;;;;;;;;17.23;100.00;97308.84;5070656;28;19929;-74
2023/05/15 09:23:47;;;;;;;;;;;;;;;17.20;100.00;97312.19;5076432;28;19936;-73
2023/05/15 09:26:15;;;;;;;;;;;;;;;17.30;100.00;97309.13;5073869;28;19969;-73
2023/05/15 09:28:42;;;;;;;;;;;;;;;17.23;100.00;97304.25;5074420;28;19921;-74
2023/05/15 09:31:08;;;;;;;;;;;;;;;17.21;100.00;97313.75;5071186;28;19999;-74
2023/05/15 09:33:35;;;;;;;;;;;;;;;17.16;100.00;97309.31;5078639;28;20007;-73
2023/05/15 09:36:02;;;;;;;;;;;;;;;17.13;100.00;97315.34;5072808;28;19928;-74
2023/05/15 09:38:29;;;;;;;;;;;;;;;17.09;100.00;97314.41;5071204;28;20000;-73
2023/05/15 09:41:01;;;;;;;;;;;;;;;17.08;100.00;97312.81;5083781;28;19924;-74
2023/05/15 09:43:29;;;;;;;;;;;;;;;17.13;100.00;97309.97;5087534;28;19984;-74
2023/05/15 09:45:56;;;;;;;;;;;;;;;17.23;100.00;97309.63;5069939;28;20604;-74
2023/05/15 09:48:22;;;;;;;;;;;;;;;16.94;100.00;97301.41;5072565;28;19960;-74
2023/05/15 09:50:49;;;;;;;;;;;;;;;17.13;100.00;97304.56;5075010;28;19964;-75
2023/05/15 09:53:15;;;;;;;;;;;;;;;17.20;100.00;97310.28;5074830;28;19931;-74
2023/05/15 09:55:42;;;;;;;;;;;;;;;17.04;100.00;97309.19;5075112;28;19932;-74
2023/05/15 09:58:10;;;;;;;;;;;;;;;17.17;100.00;97310.13;5073137;28;19929;-74
2023/05/15 10:00:38;;;;;;;;;;;;;;;17.15;100.00;97307.72;5076280;28;19932;-75
2023/05/15 10:03:05;;;;;;;;;;;;;;;17.45;100.00;97305.13;5072969;28;19921;-75
2023/05/15 10:05:31;;;;;;;;;;;;;;;17.51;100.00;97310.06;5078533;28;20675;-75
2023/05/15 10:07:58;;;;;;;;;;;;;;;17.20;100.00;97301.38;5080020;28;20281;-75
2023/05/15 10:10:25;;;;;;;;;;;;;;;17.44;100.00;97295.44;5073509;28;19921;-74
2023/05/15 10:12:52;;;;;;;;;;;;;;;17.52;100.00;97287.31;5078163;28;19951;-75
2023/05/15 10:15:19;;;;;;;;;;;;;;;17.40;100.00;97281.00;5085492;28;19944;-73
2023/05/15 10:17:48;;;;;;;;;;;;;;;17.65;100.00;97278.25;5074508;28;19952;-73
2023/05/15 10:20:15;;;;;;;;;;;;;;;17.75;100.00;97277.13;5078924;28;19963;-74
2023/05/15 10:22:45;;;;;;;;;;;;;;;17.75;100.00;97277.13;5079562;28;19940;-74
2023/05/15 10:25:15;;;;;;;;;;;;;;;17.50;100.00;97277.97;5078977;28;19952;-73
2023/05/15 10:27:42;;;;;;;;;;;;;;;17.50;100.00;97277.97;5078376;28;19925;-73
2023/05/15 10:30:09;;;;;;;;;;;;;;;17.51;100.00;97274.16;5079260;28;19988;-74
2023/05/15 10:32:36;;;;;;;;;;;;;;;17.83;100.00;97283.56;5079062;28;19994;-73
2023/05/15 10:35:04;;;;;;;;;;;;;;;17.97;100.00;97278.75;5077300;28;20426;-74
2023/05/15 10:37:31;;;;;;;;;;;;;;;18.05;100.00;97270.59;5076382;28;19934;-74
2023/05/15 10:39:58;;;;;;;;;;;;;;;18.05;100.00;97270.59;5071587;28;19963;-74
2023/05/15 10:42:26;;;;;;;;;;;;;;;17.98;100.00;97275.72;5075406;28;19925;-73
2023/05/15 10:44:52;;;;;;;;;;;;;;;17.88;100.00;97270.69;5077507;28;19932;-73
2023/05/15 10:47:20;;;;;;;;;;;;;;;17.62;100.00;97276.22;5081492;28;19932;-73
2023/05/15 10:49:46;;;;;;;;;;;;;;;17.47;100.00;97275.91;5078072;28;20391;-74
2023/05/15 10:52:15;;;;;;;;;;;;;;;17.40;100.00;97271.00;5076548;28;19976;-73
2023/05/15 10:54:42;;;;;;;;;;;;;;;17.28;100.00;97279.78;5078030;28;19928;-74
2023/05/15 10:57:09;;;;;;;;;;;;;;;17.26;100.00;97263.13;5084812;28;19921;-74
2023/05/15 10:59:35;;;;;;;;;;;;;;;17.11;100.00;97266.31;5074051;28;19936;-74
2023/05/15 11:02:22;;;;;;;;;;;;;;;16.97;100.00;97263.00;5070982;28;19993;-74
2023/05/15 11:04:48;;;;;;;;;;;;;;;16.91;100.00;97263.47;5077933;28;19932;-74
2023/05/15 11:07:17;;;;;;;;;;;;;;;16.89;100.00;97255.72;5074345;28;19980;-74
2023/05/15 11:09:43;;;;;;;;;;;;;;;16.85;100.00;97262.84;5077294;28;19921;-73
2023/05/15 11:12:10;;;;;;;;;;;;;;;16.80;100.00;97257.63;5077153;28;20027;-73
2023/05/15 11:14:38;;;;;;;;;;;;;;;16.77;100.00;97260.97;5077250;28;19950;-73
2023/05/15 11:17:05;;;;;;;;;;;;;;;16.80;100.00;97262.22;5077860;28;19980;-73
2023/05/15 11:19:46;;;;;;;;;;;;;;;16.79;100.00;97260.63;5079569;28;19982;-72
2023/05/15 11:22:18;;;;;;;;;;;;;;;16.67;100.00;97258.59;5076974;28;19992;-73
2023/05/15 11:24:49;;;;;;;;;;;;;;;16.53;100.00;97249.81;5077307;28;19925;-73
2023/05/15 11:27:17;;;;;;;;;;;;;;;16.49;100.00;97246.19;5075020;28;19925;-73
2023/05/15 11:29:58;;;;;;;;;;;;;;;16.41;100.00;97247.75;5078566;28;19933;-73
2023/05/15 11:32:31;;;;;;;;;;;;;;;16.41;100.00;97249.66;5072268;28;19960;-73
2023/05/15 11:34:59;;;;;;;;;;;;;;;16.54;100.00;97237.94;5071678;28;19925;-73
2023/05/15 11:37:27;;;;;;;;;;;;;;;16.72;100.00;97239.53;5076766;28;19921;-73
2023/05/15 11:39:55;;;;;;;;;;;;;;;16.72;100.00;97223.38;5079669;28;19968;-73
2023/05/15 11:42:21;;;;;;;;;;;;;;;16.71;100.00;97227.19;5073995;28;19992;-73
2023/05/15 11:44:48;;;;;;;;;;;;;;;16.80;100.00;97227.19;5075988;28;19935;-73
2023/05/15 11:47:14;;;;;;;;;;;;;;;16.82;100.00;97227.66;5076785;28;19960;-73
2023/05/15 11:49:41;;;;;;;;;;;;;;;16.87;100.00;97235.56;5076342;28;19928;-73
2023/05/15 11:52:07;;;;;;;;;;;;;;;16.84;100.00;97244.28;5072881;28;19956;-73
2023/05/15 11:54:35;;;;;;;;;;;;;;;16.92;100.00;97236.22;5075750;28;19992;-73
2023/05/15 11:57:02;;;;;;;;;;;;;;;17.10;100.00;97245.84;5074874;28;19992;-74
2023/05/15 11:59:30;;;;;;;;;;;;;;;17.22;100.00;97248.69;5083356;28;19943;-74
2023/05/15 12:01:59;;;;;;;;;;;;;;;17.15;100.00;97252.97;5079212;28;19935;-74
2023/05/15 12:04:25;;;;;;;;;;;;;;;17.12;100.00;97259.00;5073433;28;19925;-74
2023/05/15 12:06:52;;;;;;;;;;;;;;;17.02;100.00;97248.56;5075969;28;19988;-72
2023/05/15 12:09:21;;;;;;;;;;;;;;;17.01;100.00;97236.97;5079486;28;19925;-72
2023/05/15 12:11:50;;;;;;;;;;;;;;;17.10;100.00;97236.97;5075781;28;19935;-73
2023/05/15 12:14:16;;;;;;;;;;;;;;;17.26;100.00;97219.94;5074026;28;20000;-74
2023/05/15 12:16:43;;;;;;;;;;;;;;;17.16;100.00;97219.47;5072112;28;19938;-74
2023/05/15 12:19:10;;;;;;;;;;;;;;;17.21;100.00;97214.69;5073849;28;19980;-73
2023/05/15 12:21:42;;;;;;;;;;;;;;;17.20;100.00;97223.94;5085835;28;19982;-73
2023/05/15 12:24:10;;;;;;;;;;;;;;;17.20;100.00;97225.84;5072794;28;19963;-73
2023/05/15 12:26:38;;;;;;;;;;;;;;;17.22;100.00;97229.78;5072215;28;19931;-74
2023/05/15 12:29:06;;;;;;;;;;;;;;;16.90;100.00;97240.31;5079657;28;19920;-74
2023/05/15 12:31:34;;;;;;;;;;;;;;;16.60;100.00;97252.88;5079727;28;19929;-74
2023/05/15 12:34:01;;;;;;;;;;;;;;;16.66;100.00;97257.78;5072506;28;19959;-74
2023/05/15 12:36:29;;;;;;;;;;;;;;;16.77;100.00;97258.28;5073056;28;19971;-73